TimeCST,TemperatureF,Dew PointF,Humidity,Sea Level PressureIn,VisibilityMPH,Wind Direction,Wind SpeedMPH,Gust SpeedMPH,PrecipitationIn,Events,Conditions,WindDirDegrees,DateUTC
12:53 AM,39.9,37.0,89,30.25,5.0,Calm,Calm,-,N/A,,Clear,0,2013-01-26 06:53:00
1:53 AM,36.0,33.1,89,30.25,2.5,Calm,Calm,-,N/A,,Clear,0,2013-01-26 07:53:00
2:38 AM,33.8,30.2,87,30.26,1.8,Calm,Calm,-,N/A,,Clear,0,2013-01-26 08:38:00
2:49 AM,33.8,30.2,87,30.26,2.0,Calm,Calm,-,N/A,,Clear,0,2013-01-26 08:49:00
2:53 AM,33.1,30.9,92,30.25,2.0,Calm,Calm,-,N/A,,Clear,0,2013-01-26 08:53:00
3:01 AM,32.0,30.2,93,30.26,1.5,Calm,Calm,-,N/A,,Partly Cloudy,0,2013-01-26 09:01:00
3:32 AM,30.2,28.4,93,30.26,2.5,Calm,Calm,-,N/A,,Partly Cloudy,0,2013-01-26 09:32:00
3:53 AM,30.9,28.9,92,30.25,1.5,Calm,Calm,-,N/A,,Mostly Cloudy,0,2013-01-26 09:53:00
4:09 AM,30.2,28.4,93,30.24,2.0,Calm,Calm,-,N/A,,Overcast,0,2013-01-26 10:09:00
4:12 AM,30.2,28.4,93,30.24,1.8,Calm,Calm,-,N/A,,Overcast,0,2013-01-26 10:12:00
4:24 AM,30.2,28.4,93,30.24,0.2,Calm,Calm,-,N/A,Fog,Light Freezing Fog,0,2013-01-26 10:24:00
4:53 AM,30.0,28.9,96,30.24,0.2,Calm,Calm,-,N/A,Fog,Light Freezing Fog,0,2013-01-26 10:53:00
5:37 AM,30.2,28.4,93,30.24,2.0,Calm,Calm,-,N/A,,Mostly Cloudy,0,2013-01-26 11:37:00
5:53 AM,28.9,28.0,96,30.25,2.5,Calm,Calm,-,N/A,,Mostly Cloudy,0,2013-01-26 11:53:00
6:02 AM,28.4,28.4,100,30.25,2.0,Calm,Calm,-,N/A,,Scattered Clouds,0,2013-01-26 12:02:00
6:53 AM,28.0,27.0,96,30.27,2.5,Calm,Calm,-,N/A,,Clear,0,2013-01-26 12:53:00
7:53 AM,30.0,28.0,92,30.28,2.0,Calm,Calm,-,N/A,,Clear,0,2013-01-26 13:53:00
8:39 AM,35.6,33.8,93,30.30,4.0,Calm,Calm,-,N/A,,Clear,0,2013-01-26 14:39:00
8:53 AM,39.9,36.0,86,30.30,8.0,SSE,3.5,-,N/A,,Clear,150,2013-01-26 14:53:00
9:53 AM,45.0,30.0,56,30.31,10.0,Variable,5.8,-,N/A,,Clear,0,2013-01-26 15:53:00
10:53 AM,46.0,30.0,54,30.32,10.0,Variable,3.5,-,N/A,,Overcast,0,2013-01-26 16:53:00
11:53 AM,48.9,30.0,48,30.30,10.0,Variable,5.8,-,N/A,,Overcast,0,2013-01-26 17:53:00
12:53 PM,48.9,30.0,48,30.27,10.0,Variable,3.5,-,N/A,,Overcast,0,2013-01-26 18:53:00
1:53 PM,51.1,28.9,43,30.24,10.0,ESE,5.8,-,N/A,,Overcast,110,2013-01-26 19:53:00
2:53 PM,52.0,25.0,35,30.22,10.0,East,5.8,-,N/A,,Overcast,100,2013-01-26 20:53:00
3:53 PM,51.1,28.9,43,30.21,10.0,SE,5.8,-,N/A,,Overcast,130,2013-01-26 21:53:00
4:53 PM,50.0,30.0,46,30.20,10.0,Calm,Calm,-,N/A,,Overcast,0,2013-01-26 22:53:00
5:53 PM,50.0,28.9,44,30.21,10.0,Calm,Calm,-,N/A,,Overcast,0,2013-01-26 23:53:00
6:53 PM,48.9,30.0,48,30.23,10.0,Calm,Calm,-,N/A,,Overcast,0,2013-01-27 00:53:00
7:53 PM,48.9,30.0,48,30.23,10.0,Calm,Calm,-,N/A,,Overcast,0,2013-01-27 01:53:00
8:53 PM,48.0,30.9,52,30.23,10.0,Calm,Calm,-,N/A,,Overcast,0,2013-01-27 02:53:00
9:53 PM,46.9,33.1,59,30.23,10.0,Calm,Calm,-,N/A,,Overcast,0,2013-01-27 03:53:00
10:53 PM,46.9,33.1,59,30.23,10.0,Calm,Calm,-,N/A,,Overcast,0,2013-01-27 04:53:00
11:20 PM,46.4,33.8,62,30.23,10.0,Calm,Calm,-,N/A,,Overcast,0,2013-01-27 05:20:00
11:53 PM,46.9,34.0,61,30.22,10.0,Calm,Calm,-,N/A,,Overcast,0,2013-01-27 05:53:00